Time;durP1;ratioP1;P1;durP2;ratioP2;P2;SDS_P1;SDS_P2;PMS_P1;PMS_P2;Temp;Humidity;BMP_temperature;BMP_pressure;BME280_temperature;BME280_humidity;BME280_pressure;Samples;Min_cycle;Max_cycle;Signal;HPM_P1;HPM_P2
2021/12/27 00:01:43;;;;;;;12.32;8.85;;;;;;;;;;5097974;28;24437;-56
2021/12/27 00:04:09;;;;;;;9.60;8.30;;;;;;;;;;5101634;28;24462;-57
2021/12/27 00:06:34;;;;;;;10.15;8.43;;;;;;;;;;5098195;28;24441;-56
2021/12/27 00:08:59;;;;;;;10.07;8.00;;;;;;;;;;5097282;28;24995;-57
2021/12/27 00:11:24;;;;;;;10.60;8.33;;;;;;;;;;5100037;28;25012;-56
2021/12/27 00:13:49;;;;;;;11.77;8.00;;;;;;;;;;5098712;28;24413;-56
2021/12/27 00:16:15;;;;;;;11.73;8.33;;;;;;;;;;5102572;28;24413;-56
2021/12/27 00:18:40;;;;;;;9.05;7.80;;;;;;;;;;5100009;28;24425;-57
2021/12/27 00:21:05;;;;;;;11.53;8.67;;;;;;;;;;5100766;28;24983;-57
2021/12/27 00:23:30;;;;;;;9.73;8.37;;;;;;;;;;5097301;28;24425;-57
2021/12/27 00:25:56;;;;;;;14.10;8.33;;;;;;;;;;5096830;28;24479;-57
2021/12/27 00:28:21;;;;;;;11.25;8.52;;;;;;;;;;5100143;28;25014;-57
2021/12/27 00:30:46;;;;;;;11.27;8.30;;;;;;;;;;5102414;28;24397;-56
2021/12/27 00:33:11;;;;;;;9.90;8.20;;;;;;;;;;5101980;28;24772;-56
2021/12/27 00:35:39;;;;;;;10.20;8.20;;;;;;;;;;5102173;28;24678;-56
2021/12/27 00:38:05;;;;;;;11.68;8.10;;;;;;;;;;5096763;28;24489;-58
2021/12/27 00:40:30;;;;;;;10.90;8.68;;;;;;;;;;5099522;28;24833;-56
2021/12/27 00:42:55;;;;;;;10.30;7.83;;;;;;;;;;5101784;28;24521;-56
2021/12/27 00:45:21;;;;;;;9.63;8.20;;;;;;;;;;5102813;28;25002;-57
2021/12/27 00:47:46;;;;;;;10.95;8.50;;;;;;;;;;5099835;28;24409;-57
2021/12/27 00:50:11;;;;;;;13.47;9.10;;;;;;;;;;5097033;28;24977;-55
2021/12/27 00:52:37;;;;;;;10.33;8.03;;;;;;;;;;5098140;28;24496;-56
2021/12/27 00:55:04;;;;;;;9.50;8.50;;;;;;;;;;5102253;28;24421;-56
2021/12/27 00:57:29;;;;;;;9.32;8.43;;;;;;;;;;5099945;28;24540;-57
2021/12/27 00:59:54;;;;;;;11.00;9.23;;;;;;;;;;5102914;28;24854;-56
2021/12/27 01:02:19;;;;;;;11.47;9.37;;;;;;;;;;5096205;28;24445;-56
2021/12/27 01:04:44;;;;;;;10.17;8.90;;;;;;;;;;5099872;28;24437;-56
2021/12/27 01:07:09;;;;;;;10.82;8.77;;;;;;;;;;5094162;28;25026;-56
2021/12/27 01:10:01;;;;;;;12.67;8.70;;;;;;;;;;5092078;28;24414;-57
2021/12/27 01:12:33;;;;;;;11.02;9.25;;;;;;;;;;5097816;28;24425;-54
2021/12/27 01:15:11;;;;;;;10.95;8.93;;;;;;;;;;5099841;28;24966;-56
2021/12/27 01:17:37;;;;;;;10.68;8.65;;;;;;;;;;5101407;28;24425;-56
2021/12/27 01:20:05;;;;;;;11.07;8.60;;;;;;;;;;5106256;28;24414;-56
2021/12/27 01:22:30;;;;;;;11.63;8.82;;;;;;;;;;5105070;28;24417;-57
2021/12/27 01:24:55;;;;;;;11.00;8.63;;;;;;;;;;5101334;28;24829;-56
2021/12/27 01:27:20;;;;;;;11.45;9.25;;;;;;;;;;5099253;28;24855;-57
2021/12/27 01:29:45;;;;;;;10.45;9.32;;;;;;;;;;5106002;28;25298;-60
2021/12/27 01:32:10;;;;;;;10.87;8.83;;;;;;;;;;5105654;28;24401;-56
2021/12/27 01:34:35;;;;;;;11.00;9.30;;;;;;;;;;5101848;28;25010;-57
2021/12/27 01:37:01;;;;;;;11.40;9.27;;;;;;;;;;5101277;28;24432;-58
2021/12/27 01:39:26;;;;;;;11.57;9.30;;;;;;;;;;5105536;28;24421;-56
2021/12/27 01:41:52;;;;;;;11.00;9.40;;;;;;;;;;5103283;28;24453;-57
2021/12/27 01:44:17;;;;;;;11.00;9.02;;;;;;;;;;5101104;28;24868;-56
2021/12/27 01:46:42;;;;;;;11.03;8.70;;;;;;;;;;5099495;28;24456;-56
2021/12/27 01:49:08;;;;;;;11.25;9.40;;;;;;;;;;5104327;28;24425;-56
2021/12/27 01:51:35;;;;;;;11.50;9.10;;;;;;;;;;5103764;28;24832;-57
2021/12/27 01:54:00;;;;;;;9.90;8.80;;;;;;;;;;5104750;28;24423;-57
2021/12/27 01:56:26;;;;;;;11.60;10.40;;;;;;;;;;5104003;28;24414;-56
2021/12/27 01:58:52;;;;;;;11.25;9.40;;;;;;;;;;5098914;28;26188;-56
2021/12/27 02:01:18;;;;;;;13.35;9.57;;;;;;;;;;5103393;28;24417;-56
2021/12/27 02:03:44;;;;;;;11.30;9.40;;;;;;;;;;5103358;28;24441;-56
2021/12/27 02:06:11;;;;;;;10.70;9.10;;;;;;;;;;5105224;28;25010;-56
2021/12/27 02:08:37;;;;;;;14.43;9.90;;;;;;;;;;5102344;28;24409;-56
2021/12/27 02:11:03;;;;;;;11.20;9.10;;;;;;;;;;5091476;28;24990;-56
2021/12/27 02:13:28;;;;;;;10.65;9.15;;;;;;;;;;5100792;28;24420;-56
2021/12/27 02:15:53;;;;;;;10.80;9.70;;;;;;;;;;5104771;28;24475;-57
2021/12/27 02:18:18;;;;;;;12.20;9.57;;;;;;;;;;5104811;28;24826;-57
2021/12/27 02:20:44;;;;;;;11.40;9.93;;;;;;;;;;5102772;28;25052;-58
2021/12/27 02:23:15;;;;;;;13.35;10.80;;;;;;;;;;5101263;28;24426;-57
2021/12/27 02:25:40;;;;;;;11.88;9.40;;;;;;;;;;5098801;28;24755;-57
2021/12/27 02:28:07;;;;;;;11.70;10.07;;;;;;;;;;5103525;28;24528;-57
2021/12/27 02:30:32;;;;;;;12.30;9.80;;;;;;;;;;5101974;28;24955;-57
2021/12/27 02:33:00;;;;;;;13.10;10.10;;;;;;;;;;5104762;28;24425;-56
2021/12/27 02:35:27;;;;;;;12.48;9.63;;;;;;;;;;5101011;28;24425;-56
2021/12/27 02:37:53;;;;;;;11.50;9.75;;;;;;;;;;5098160;28;24441;-57
2021/12/27 02:40:19;;;;;;;12.70;9.40;;;;;;;;;;5104233;28;24414;-56
2021/12/27 02:42:54;;;;;;;12.70;10.03;;;;;;;;;;5102628;28;24417;-56
2021/12/27 02:45:19;;;;;;;11.10;9.38;;;;;;;;;;5098591;28;24445;-56
2021/12/27 02:47:44;;;;;;;12.03;9.40;;;;;;;;;;5099602;28;24448;-57
2021/12/27 02:50:09;;;;;;;12.57;10.23;;;;;;;;;;5101926;28;24413;-56
2021/12/27 02:52:34;;;;;;;12.53;10.10;;;;;;;;;;5102415;28;24888;-57
2021/12/27 02:55:00;;;;;;;12.23;9.80;;;;;;;;;;5104084;28;24985;-57
2021/12/27 02:57:25;;;;;;;11.20;9.80;;;;;;;;;;5103566;28;24862;-57
2021/12/27 02:59:50;;;;;;;11.50;10.30;;;;;;;;;;5101661;28;24421;-57
2021/12/27 03:02:15;;;;;;;12.02;9.63;;;;;;;;;;5099608;28;24544;-57
2021/12/27 03:04:40;;;;;;;10.67;9.40;;;;;;;;;;5100286;28;25118;-58
2021/12/27 03:07:05;;;;;;;12.70;9.88;;;;;;;;;;5101159;28;24539;-57
2021/12/27 03:09:31;;;;;;;11.38;9.48;;;;;;;;;;5101304;28;25010;-57
2021/12/27 03:11:56;;;;;;;12.27;9.80;;;;;;;;;;5101727;28;24402;-56
2021/12/27 03:14:23;;;;;;;11.73;10.53;;;;;;;;;;5103831;28;24563;-56
2021/12/27 03:16:48;;;;;;;12.32;10.00;;;;;;;;;;5098050;28;25085;-56
2021/12/27 03:19:13;;;;;;;12.03;10.13;;;;;;;;;;5101974;28;25326;-57
2021/12/27 03:21:38;;;;;;;11.23;9.87;;;;;;;;;;5101092;28;24509;-56
2021/12/27 03:24:04;;;;;;;13.23;10.48;;;;;;;;;;5103560;28;24478;-56
2021/12/27 03:26:29;;;;;;;13.20;9.70;;;;;;;;;;5099445;28;24417;-55
2021/12/27 03:28:54;;;;;;;11.93;10.37;;;;;;;;;;5099281;28;24413;-55
2021/12/27 03:31:19;;;;;;;12.65;10.50;;;;;;;;;;5097215;28;24511;-55
2021/12/27 03:33:45;;;;;;;13.10;9.93;;;;;;;;;;5100921;28;24528;-56
2021/12/27 03:36:10;;;;;;;12.83;10.53;;;;;;;;;;5103519;28;24971;-56
2021/12/27 03:38:40;;;;;;;12.50;9.98;;;;;;;;;;5102630;28;25064;-56
2021/12/27 03:41:06;;;;;;;11.60;10.00;;;;;;;;;;5099296;28;24424;-55
2021/12/27 03:43:31;;;;;;;12.75;10.10;;;;;;;;;;5099295;28;24470;-56
2021/12/27 03:45:57;;;;;;;12.80;9.80;;;;;;;;;;5099249;28;24410;-56
2021/12/27 03:48:22;;;;;;;12.30;10.40;;;;;;;;;;5103033;28;24402;-55
2021/12/27 03:50:47;;;;;;;11.63;10.43;;;;;;;;;;5095887;28;24499;-56
2021/12/27 03:53:12;;;;;;;12.10;9.40;;;;;;;;;;5101448;28;24537;-56
2021/12/27 03:55:37;;;;;;;13.23;9.97;;;;;;;;;;5097047;28;24927;-56
2021/12/27 03:58:08;;;;;;;11.77;10.55;;;;;;;;;;5098806;28;24448;-55
2021/12/27 04:00:47;;;;;;;12.00;9.75;;;;;;;;;;5101084;28;24472;-56
2021/12/27 04:03:13;;;;;;;11.55;10.35;;;;;;;;;;5100476;28;24795;-56
2021/12/27 04:05:39;;;;;;;12.75;10.02;;;;;;;;;;5098973;28;24414;-56
2021/12/27 04:08:09;;;;;;;11.13;9.17;;;;;;;;;;5098760;28;24417;-56
2021/12/27 04:10:35;;;;;;;11.98;9.45;;;;;;;;;;5100500;28;24954;-57
2021/12/27 04:13:00;;;;;;;12.73;9.98;;;;;;;;;;5102250;28;24490;-56
2021/12/27 04:15:25;;;;;;;11.63;9.93;;;;;;;;;;5102655;28;24470;-56
2021/12/27 04:17:51;;;;;;;13.47;10.20;;;;;;;;;;5098721;28;24410;-56
2021/12/27 04:20:16;;;;;;;12.80;10.30;;;;;;;;;;5100380;28;24768;-57
2021/12/27 04:22:41;;;;;;;12.70;10.40;;;;;;;;;;5100660;28;24414;-56
2021/12/27 04:25:07;;;;;;;12.27;10.70;;;;;;;;;;5103555;28;25190;-56
2021/12/27 04:27:32;;;;;;;12.57;10.60;;;;;;;;;;5102521;28;24414;-57
2021/12/27 04:29:57;;;;;;;13.20;10.20;;;;;;;;;;5085776;28;24406;-57
2021/12/27 04:32:22;;;;;;;14.07;10.88;;;;;;;;;;5097505;28;24874;-57
2021/12/27 04:34:48;;;;;;;14.80;11.20;;;;;;;;;;5099004;28;24417;-57
2021/12/27 04:37:13;;;;;;;13.10;11.23;;;;;;;;;;5102646;28;24418;-58
2021/12/27 04:39:38;;;;;;;12.77;10.60;;;;;;;;;;5100592;28;25042;-57
2021/12/27 04:42:04;;;;;;;12.90;9.83;;;;;;;;;;5100294;28;25021;-55
2021/12/27 04:44:29;;;;;;;12.93;11.63;;;;;;;;;;5096778;28;24430;-56
2021/12/27 04:46:55;;;;;;;13.50;11.03;;;;;;;;;;5098324;28;24417;-55
2021/12/27 04:49:20;;;;;;;13.40;11.20;;;;;;;;;;5102900;28;24433;-56
2021/12/27 04:51:47;;;;;;;14.73;11.60;;;;;;;;;;5100653;28;22285;-57
2021/12/27 04:54:13;;;;;;;12.17;10.73;;;;;;;;;;5106042;28;24673;-56
2021/12/27 04:56:38;;;;;;;13.23;11.02;;;;;;;;;;5099250;28;24561;-57
2021/12/27 04:59:03;;;;;;;13.57;11.20;;;;;;;;;;5102608;28;25159;-56
2021/12/27 05:01:28;;;;;;;13.70;11.20;;;;;;;;;;5100023;28;24434;-57
2021/12/27 05:03:53;;;;;;;14.87;11.67;;;;;;;;;;5106239;28;24461;-56
2021/12/27 05:06:20;;;;;;;13.77;11.87;;;;;;;;;;5103611;28;24517;-56
2021/12/27 05:08:45;;;;;;;13.32;11.40;;;;;;;;;;5102547;28;24513;-55
2021/12/27 05:11:10;;;;;;;13.00;11.60;;;;;;;;;;5101940;28;25033;-55
2021/12/27 05:13:36;;;;;;;12.93;10.83;;;;;;;;;;5101956;28;24417;-56
2021/12/27 05:16:02;;;;;;;12.03;10.73;;;;;;;;;;5105722;28;24417;-56
2021/12/27 05:18:27;;;;;;;12.98;11.30;;;;;;;;;;5101137;28;24452;-56
2021/12/27 05:20:53;;;;;;;14.05;11.05;;;;;;;;;;5102051;28;24445;-56
2021/12/27 05:23:18;;;;;;;13.90;12.40;;;;;;;;;;5105142;28;24525;-57
2021/12/27 05:25:44;;;;;;;13.43;10.97;;;;;;;;;;5104242;28;24894;-57
2021/12/27 05:28:09;;;;;;;12.00;10.70;;;;;;;;;;5101820;28;24476;-57
2021/12/27 05:30:34;;;;;;;16.23;12.67;;;;;;;;;;5087371;28;25178;-57
2021/12/27 05:32:59;;;;;;;14.03;12.03;;;;;;;;;;5104209;28;24406;-56
2021/12/27 05:35:25;;;;;;;15.35;12.52;;;;;;;;;;5105446;28;24416;-56
2021/12/27 05:37:50;;;;;;;14.70;12.00;;;;;;;;;;5104539;28;24471;-56
2021/12/27 05:40:18;;;;;;;14.70;12.20;;;;;;;;;;5103383;28;24421;-56
2021/12/27 05:42:43;;;;;;;16.00;12.13;;;;;;;;;;5100280;28;24417;-57
2021/12/27 05:45:08;;;;;;;13.48;11.82;;;;;;;;;;5104838;28;24418;-57
2021/12/27 05:47:34;;;;;;;15.65;13.25;;;;;;;;;;5103611;28;24746;-57
2021/12/27 05:49:59;;;;;;;16.60;13.02;;;;;;;;;;5102578;28;24420;-57
2021/12/27 05:52:24;;;;;;;14.73;11.85;;;;;;;;;;5101025;28;24432;-57
2021/12/27 05:54:49;;;;;;;14.87;11.27;;;;;;;;;;5102313;28;24502;-57
2021/12/27 05:57:15;;;;;;;13.80;11.60;;;;;;;;;;5094654;28;24482;-57
2021/12/27 05:59:40;;;;;;;14.52;11.77;;;;;;;;;;5102828;28;24422;-57
2021/12/27 06:02:05;;;;;;;14.75;11.60;;;;;;;;;;5099613;28;24430;-58
2021/12/27 06:04:30;;;;;;;13.05;11.65;;;;;;;;;;5098787;28;24461;-57
2021/12/27 06:06:56;;;;;;;14.32;11.98;;;;;;;;;;5102708;28;24421;-58
2021/12/27 06:09:21;;;;;;;14.68;11.80;;;;;;;;;;5096986;28;24421;-58
2021/12/27 06:11:46;;;;;;;12.10;10.52;;;;;;;;;;5098748;28;24478;-58
2021/12/27 06:14:12;;;;;;;14.30;11.03;;;;;;;;;;5104556;28;24545;-57
2021/12/27 06:16:37;;;;;;;15.53;11.67;;;;;;;;;;5102686;28;24893;-56
2021/12/27 06:19:03;;;;;;;12.10;10.60;;;;;;;;;;5103532;28;25075;-57
2021/12/27 06:21:28;;;;;;;13.90;11.43;;;;;;;;;;5100832;28;25038;-57
2021/12/27 06:23:53;;;;;;;14.37;11.30;;;;;;;;;;5099754;28;24436;-56
2021/12/27 06:26:19;;;;;;;13.13;11.10;;;;;;;;;;5100994;28;24493;-56
2021/12/27 06:28:45;;;;;;;12.30;10.60;;;;;;;;;;5099587;28;24792;-56
2021/12/27 06:31:10;;;;;;;13.88;11.38;;;;;;;;;;5100580;28;24530;-56
2021/12/27 06:33:35;;;;;;;13.73;11.20;;;;;;;;;;5098135;28;24969;-56
2021/12/27 06:36:00;;;;;;;13.37;11.27;;;;;;;;;;5089888;28;24425;-57
2021/12/27 06:38:25;;;;;;;14.02;11.80;;;;;;;;;;5093068;28;24428;-57
2021/12/27 06:40:51;;;;;;;14.20;11.10;;;;;;;;;;5098846;28;24407;-56
2021/12/27 06:43:16;;;;;;;12.50;11.20;;;;;;;;;;5098766;28;24444;-56
2021/12/27 06:45:42;;;;;;;12.30;10.20;;;;;;;;;;5097437;28;24425;-58
2021/12/27 06:48:07;;;;;;;13.67;11.47;;;;;;;;;;5095998;28;25084;-56
2021/12/27 06:50:32;;;;;;;13.20;10.90;;;;;;;;;;5099503;28;25112;-56
2021/12/27 06:52:57;;;;;;;13.95;11.35;;;;;;;;;;5100196;28;24406;-56
2021/12/27 06:55:22;;;;;;;12.70;11.03;;;;;;;;;;5101464;28;24417;-56
2021/12/27 06:57:49;;;;;;;13.60;11.00;;;;;;;;;;5097386;28;24788;-57
2021/12/27 07:00:14;;;;;;;13.63;11.20;;;;;;;;;;5093081;28;24406;-57
2021/12/27 07:02:39;;;;;;;13.17;11.77;;;;;;;;;;5099173;28;24432;-56
2021/12/27 07:05:05;;;;;;;13.57;10.70;;;;;;;;;;5099728;28;24632;-56
2021/12/27 07:07:30;;;;;;;11.80;10.43;;;;;;;;;;5100868;28;24421;-56
2021/12/27 07:09:56;;;;;;;13.05;11.00;;;;;;;;;;5096495;28;24521;-57
2021/12/27 07:12:21;;;;;;;14.80;12.60;;;;;;;;;;5096640;28;24425;-56
2021/12/27 07:14:48;;;;;;;15.53;12.07;;;;;;;;;;5093383;28;24426;-56
2021/12/27 07:17:13;;;;;;;12.48;10.98;;;;;;;;;;5085862;28;24421;-56
2021/12/27 07:19:38;;;;;;;14.70;13.05;;;;;;;;;;5091048;28;24977;-56
2021/12/27 07:22:04;;;;;;;14.30;11.68;;;;;;;;;;5096462;28;24414;-56
2021/12/27 07:24:29;;;;;;;15.88;11.90;;;;;;;;;;5097007;28;24456;-56
2021/12/27 07:26:54;;;;;;;14.75;12.10;;;;;;;;;;5097686;28;24566;-56
2021/12/27 07:29:20;;;;;;;15.90;12.43;;;;;;;;;;5091841;28;24410;-56
2021/12/27 07:31:45;;;;;;;15.25;11.60;;;;;;;;;;5093838;28;24410;-56
2021/12/27 07:34:10;;;;;;;13.43;11.23;;;;;;;;;;5096377;28;24846;-57
2021/12/27 07:36:36;;;;;;;17.47;11.97;;;;;;;;;;5095826;28;24433;-56
2021/12/27 07:39:01;;;;;;;14.88;12.15;;;;;;;;;;5100242;28;25022;-56
2021/12/27 07:41:26;;;;;;;13.23;11.07;;;;;;;;;;5093500;28;24850;-56
2021/12/27 07:43:51;;;;;;;13.50;11.70;;;;;;;;;;5093128;28;24586;-56
2021/12/27 07:46:16;;;;;;;14.85;12.23;;;;;;;;;;5081018;28;24402;-56
2021/12/27 07:48:41;;;;;;;14.13;11.90;;;;;;;;;;5098438;28;24416;-56
2021/12/27 07:51:07;;;;;;;13.50;10.75;;;;;;;;;;5100120;28;24421;-56
2021/12/27 07:53:32;;;;;;;13.65;12.18;;;;;;;;;;5098299;28;24418;-56
2021/12/27 07:55:57;;;;;;;16.27;12.57;;;;;;;;;;5096754;28;24543;-57
2021/12/27 07:58:22;;;;;;;13.95;11.25;;;;;;;;;;5083577;28;24432;-56
2021/12/27 08:00:50;;;;;;;14.15;11.10;;;;;;;;;;5098313;28;24412;-57
2021/12/27 08:03:16;;;;;;;13.35;10.70;;;;;;;;;;5100418;28;24861;-57
2021/12/27 08:05:42;;;;;;;13.88;11.13;;;;;;;;;;5094489;28;24417;-57
2021/12/27 08:08:07;;;;;;;13.13;11.50;;;;;;;;;;5095169;28;24799;-57
2021/12/27 08:10:32;;;;;;;11.90;10.60;;;;;;;;;;5096063;28;24418;-57
2021/12/27 08:12:57;;;;;;;12.73;11.43;;;;;;;;;;5099766;28;24555;-57
2021/12/27 08:15:22;;;;;;;13.30;11.03;;;;;;;;;;5099901;28;24498;-57
2021/12/27 08:17:48;;;;;;;12.40;11.15;;;;;;;;;;5094123;28;24417;-55
2021/12/27 08:20:13;;;;;;;12.38;11.07;;;;;;;;;;5097392;28;24425;-55
2021/12/27 08:22:38;;;;;;;12.17;10.97;;;;;;;;;;5098254;28;24558;-56
2021/12/27 08:25:07;;;;;;;12.73;10.98;;;;;;;;;;5099806;28;24477;-56
2021/12/27 08:27:32;;;;;;;13.90;11.02;;;;;;;;;;5099481;28;24760;-56
2021/12/27 08:30:00;;;;;;;11.03;9.93;;;;;;;;;;5094323;28;24418;-56
2021/12/27 08:32:25;;;;;;;12.53;11.17;;;;;;;;;;5096044;28;24459;-56
2021/12/27 08:34:50;;;;;;;12.52;11.05;;;;;;;;;;5102235;28;24463;-56
2021/12/27 08:37:15;;;;;;;12.35;10.68;;;;;;;;;;5103730;28;24872;-56
2021/12/27 08:39:40;;;;;;;11.70;10.50;;;;;;;;;;5095223;28;24429;-55
2021/12/27 08:42:07;;;;;;;12.00;10.70;;;;;;;;;;5101862;28;24436;-58
2021/12/27 08:44:33;;;;;;;11.80;10.10;;;;;;;;;;5101223;28;24461;-56
2021/12/27 08:46:58;;;;;;;11.90;10.30;;;;;;;;;;5103478;28;24440;-57
2021/12/27 08:49:23;;;;;;;13.05;10.75;;;;;;;;;;5103024;28;24685;-56
2021/12/27 08:51:48;;;;;;;13.50;12.10;;;;;;;;;;5097585;28;24519;-56
2021/12/27 08:54:13;;;;;;;11.95;10.40;;;;;;;;;;5098140;28;25344;-57
2021/12/27 08:56:39;;;;;;;13.70;11.70;;;;;;;;;;5089394;28;24421;-56
2021/12/27 08:59:04;;;;;;;13.53;11.33;;;;;;;;;;5103415;28;24406;-56
2021/12/27 09:01:30;;;;;;;13.07;11.60;;;;;;;;;;5091766;28;24946;-56
2021/12/27 09:03:55;;;;;;;13.80;11.10;;;;;;;;;;5102078;28;25044;-56
2021/12/27 09:06:20;;;;;;;14.73;13.13;;;;;;;;;;5097056;28;24425;-56
2021/12/27 09:08:45;;;;;;;13.30;11.60;;;;;;;;;;5092158;28;24745;-56
2021/12/27 09:11:10;;;;;;;14.50;11.53;;;;;;;;;;5103238;28;24414;-56
2021/12/27 09:13:38;;;;;;;13.60;12.07;;;;;;;;;;5101489;28;24939;-56
2021/12/27 09:16:04;;;;;;;14.77;12.70;;;;;;;;;;5104011;28;24424;-61
2021/12/27 09:18:31;;;;;;;14.57;12.13;;;;;;;;;;5101574;28;24973;-56
2021/12/27 09:20:56;;;;;;;16.02;12.20;;;;;;;;;;5104053;28;24417;-56
2021/12/27 09:23:21;;;;;;;13.83;12.33;;;;;;;;;;5105441;28;24433;-56
2021/12/27 09:25:47;;;;;;;14.37;11.77;;;;;;;;;;5103446;28;24906;-56
2021/12/27 09:28:13;;;;;;;14.80;12.30;;;;;;;;;;5101584;28;24828;-56
2021/12/27 09:30:38;;;;;;;16.38;13.05;;;;;;;;;;5100682;28;24496;-56
2021/12/27 09:33:04;;;;;;;15.27;13.40;;;;;;;;;;5102594;28;24433;-56
2021/12/27 09:35:29;;;;;;;14.40;12.17;;;;;;;;;;5102668;28;24492;-56
2021/12/27 09:37:54;;;;;;;15.57;12.60;;;;;;;;;;5105695;27;24516;-55
2021/12/27 09:40:19;;;;;;;14.68;12.90;;;;;;;;;;5106303;28;24393;-55
2021/12/27 09:42:45;;;;;;;15.40;12.33;;;;;;;;;;5103871;28;24477;-56
2021/12/27 09:45:10;;;;;;;12.70;11.20;;;;;;;;;;5100632;28;24997;-56
2021/12/27 09:47:36;;;;;;;14.63;12.83;;;;;;;;;;5100441;28;24413;-57
2021/12/27 09:50:02;;;;;;;14.17;12.77;;;;;;;;;;5104049;28;24894;-56
2021/12/27 09:52:27;;;;;;;14.95;12.55;;;;;;;;;;5105885;28;24523;-56
2021/12/27 09:54:52;;;;;;;15.88;13.13;;;;;;;;;;5103346;28;25099;-56
2021/12/27 09:57:18;;;;;;;14.30;12.17;;;;;;;;;;5099776;28;24501;-56
2021/12/27 09:59:44;;;;;;;13.30;11.63;;;;;;;;;;5099728;28;24960;-56
2021/12/27 10:02:10;;;;;;;15.65;12.60;;;;;;;;;;5105206;28;24490;-56
2021/12/27 10:04:36;;;;;;;15.02;11.88;;;;;;;;;;5105390;28;24414;-55
2021/12/27 10:07:02;;;;;;;14.82;12.15;;;;;;;;;;5086266;28;24748;-56
2021/12/27 10:09:27;;;;;;;14.77;13.27;;;;;;;;;;5096817;28;24413;-55
2021/12/27 10:11:52;;;;;;;15.07;12.63;;;;;;;;;;5103335;28;25061;-55
2021/12/27 10:14:18;;;;;;;14.00;12.50;;;;;;;;;;5105734;28;24416;-56
2021/12/27 10:17:02;;;;;;;15.48;13.00;;;;;;;;;;5103774;28;24382;-57
2021/12/27 10:19:27;;;;;;;14.07;12.57;;;;;;;;;;5105020;28;24465;-57
2021/12/27 10:21:53;;;;;;;16.93;13.07;;;;;;;;;;5099993;28;24397;-57
2021/12/27 10:24:20;;;;;;;15.10;12.53;;;;;;;;;;5099139;28;24646;-57
2021/12/27 10:26:52;;;;;;;14.52;12.52;;;;;;;;;;5086461;28;24394;-57
2021/12/27 10:29:19;;;;;;;15.75;13.55;;;;;;;;;;5089659;28;24417;-57
2021/12/27 10:31:51;;;;;;;13.98;12.48;;;;;;;;;;5103352;28;24392;-57
2021/12/27 10:34:16;;;;;;;14.43;12.93;;;;;;;;;;5101115;28;24414;-57
2021/12/27 10:36:57;;;;;;;14.70;12.80;;;;;;;;;;5099734;28;24413;-57
2021/12/27 10:39:22;;;;;;;14.43;12.77;;;;;;;;;;5105446;28;24534;-58
2021/12/27 10:41:47;;;;;;;14.77;13.18;;;;;;;;;;5109338;27;24895;-57
2021/12/27 10:44:12;;;;;;;15.25;12.98;;;;;;;;;;5119729;27;24424;-56
2021/12/27 10:46:37;;;;;;;15.63;13.30;;;;;;;;;;5099242;28;24400;-57
2021/12/27 10:49:03;;;;;;;15.55;12.98;;;;;;;;;;5100490;28;24536;-57
2021/12/27 10:51:28;;;;;;;15.57;13.87;;;;;;;;;;5101480;28;24400;-57
2021/12/27 10:53:55;;;;;;;15.77;13.33;;;;;;;;;;5104649;28;24485;-54
2021/12/27 10:56:22;;;;;;;15.50;13.90;;;;;;;;;;5104022;28;24510;-57
2021/12/27 10:58:51;;;;;;;15.60;13.85;;;;;;;;;;5098952;28;24417;-56
2021/12/27 11:01:18;;;;;;;16.42;14.57;;;;;;;;;;5087439;28;24420;-56
2021/12/27 11:03:44;;;;;;;17.42;14.98;;;;;;;;;;5082405;28;24516;-57
2021/12/27 11:06:10;;;;;;;17.40;14.67;;;;;;;;;;5103264;28;24505;-57
2021/12/27 11:08:36;;;;;;;18.02;15.30;;;;;;;;;;5100414;28;24451;-56
2021/12/27 11:11:02;;;;;;;16.25;14.38;;;;;;;;;;5100198;28;24386;-56
2021/12/27 11:13:27;;;;;;;18.60;15.13;;;;;;;;;;5104067;28;24486;-56
2021/12/27 11:15:53;;;;;;;18.13;14.18;;;;;;;;;;5101911;28;24417;-56
2021/12/27 11:18:18;;;;;;;16.25;13.90;;;;;;;;;;5102280;28;24398;-56
2021/12/27 11:20:45;;;;;;;16.57;14.27;;;;;;;;;;5099410;28;24529;-56
2021/12/27 11:23:10;;;;;;;17.85;13.85;;;;;;;;;;5104009;28;25006;-56
2021/12/27 11:25:37;;;;;;;17.40;14.77;;;;;;;;;;5101842;28;24485;-56
2021/12/27 11:28:03;;;;;;;17.30;14.60;;;;;;;;;;5099629;28;24420;-57
2021/12/27 11:30:31;;;;;;;17.97;14.53;;;;;;;;;;5086996;28;24487;-57
2021/12/27 11:33:02;;;;;;;17.88;15.25;;;;;;;;;;5100817;28;24935;-56
2021/12/27 11:35:34;;;;;;;17.58;15.02;;;;;;;;;;5098910;28;24414;-57
2021/12/27 11:38:01;;;;;;;19.00;14.70;;;;;;;;;;5090963;28;24413;-57
2021/12/27 11:40:37;;;;;;;16.80;15.00;;;;;;;;;;5100742;28;24994;-57
2021/12/27 11:43:04;;;;;;;17.13;15.10;;;;;;;;;;5099468;28;24512;-57
2021/12/27 11:45:36;;;;;;;18.50;14.60;;;;;;;;;;5102034;28;24525;-57
2021/12/27 11:48:06;;;;;;;17.73;15.07;;;;;;;;;;5103476;28;24757;-57
2021/12/27 11:50:31;;;;;;;17.63;14.45;;;;;;;;;;5103867;28;24389;-57
2021/12/27 11:53:04;;;;;;;16.60;14.80;;;;;;;;;;5099862;28;24961;-57
2021/12/27 11:55:37;;;;;;;18.50;14.80;;;;;;;;;;5101086;28;24402;-56
2021/12/27 11:58:02;;;;;;;16.88;14.27;;;;;;;;;;5099720;28;24448;-56
2021/12/27 12:00:27;;;;;;;19.27;15.00;;;;;;;;;;5101248;28;24472;-57
2021/12/27 12:02:54;;;;;;;17.67;14.70;;;;;;;;;;5103244;28;24494;-55
2021/12/27 12:05:43;;;;;;;18.13;14.57;;;;;;;;;;5101885;28;24423;-57
2021/12/27 12:08:08;;;;;;;17.40;15.10;;;;;;;;;;5091216;28;24491;-57
2021/12/27 12:10:34;;;;;;;20.58;15.38;;;;;;;;;;5100617;28;24406;-57
2021/12/27 12:13:18;;;;;;;17.10;14.38;;;;;;;;;;5101209;28;24815;-57
2021/12/27 12:16:03;;;;;;;18.25;14.45;;;;;;;;;;5101012;28;24954;-57
2021/12/27 12:18:29;;;;;;;17.40;13.88;;;;;;;;;;5099134;28;24408;-57
2021/12/27 12:20:54;;;;;;;16.98;14.50;;;;;;;;;;5100756;28;24406;-56
2021/12/27 12:23:20;;;;;;;17.60;14.20;;;;;;;;;;5102444;28;24436;-57
2021/12/27 12:25:45;;;;;;;17.80;14.90;;;;;;;;;;5100208;28;24416;-57
2021/12/27 12:28:12;;;;;;;19.02;14.82;;;;;;;;;;5101209;28;24473;-56
2021/12/27 12:30:38;;;;;;;17.20;14.98;;;;;;;;;;5097141;28;24459;-57
2021/12/27 12:33:20;;;;;;;17.55;15.02;;;;;;;;;;5098789;28;24390;-56
2021/12/27 12:35:52;;;;;;;17.85;15.02;;;;;;;;;;5100233;28;24421;-56
2021/12/27 12:38:17;;;;;;;19.05;15.35;;;;;;;;;;5103259;28;24400;-56
2021/12/27 12:40:43;;;;;;;18.93;15.13;;;;;;;;;;5097820;28;24504;-57
2021/12/27 12:43:08;;;;;;;16.53;14.47;;;;;;;;;;5095462;28;24425;-57
2021/12/27 12:45:33;;;;;;;20.83;16.10;;;;;;;;;;5100924;28;24750;-57
2021/12/27 12:47:59;;;;;;;18.70;15.77;;;;;;;;;;5096751;28;24420;-56
2021/12/27 12:50:24;;;;;;;16.53;14.60;;;;;;;;;;5094525;28;25042;-57
2021/12/27 12:52:51;;;;;;;20.47;16.83;;;;;;;;;;5099261;28;24486;-56
2021/12/27 12:55:19;;;;;;;19.42;16.40;;;;;;;;;;5098525;28;24531;-56
2021/12/27 12:57:48;;;;;;;18.98;15.85;;;;;;;;;;5092174;28;24922;-56
2021/12/27 13:00:13;;;;;;;19.27;16.00;;;;;;;;;;5091819;28;24433;-56
2021/12/27 13:02:39;;;;;;;19.80;16.93;;;;;;;;;;5089596;28;24444;-56
2021/12/27 13:05:05;;;;;;;20.50;17.35;;;;;;;;;;5086187;28;24442;-56
2021/12/27 13:07:39;;;;;;;17.55;15.07;;;;;;;;;;5093040;28;25009;-56
2021/12/27 13:10:17;;;;;;;21.65;17.40;;;;;;;;;;5098220;28;24462;-56
2021/12/27 13:12:42;;;;;;;23.27;17.13;;;;;;;;;;5095053;28;24424;-56
2021/12/27 13:15:17;;;;;;;22.37;17.40;;;;;;;;;;5101829;28;24456;-57
2021/12/27 13:17:42;;;;;;;20.85;16.65;;;;;;;;;;5095880;28;24513;-55
2021/12/27 13:20:15;;;;;;;22.00;17.20;;;;;;;;;;5097440;28;24535;-56
2021/12/27 13:22:41;;;;;;;21.40;17.52;;;;;;;;;;5097937;28;24424;-57
2021/12/27 13:25:07;;;;;;;18.63;16.23;;;;;;;;;;5101835;28;24464;-57
2021/12/27 13:27:32;;;;;;;20.38;17.20;;;;;;;;;;5100217;28;24417;-57
2021/12/27 13:30:08;;;;;;;22.50;17.37;;;;;;;;;;5096927;28;24466;-57
2021/12/27 13:32:33;;;;;;;20.40;16.40;;;;;;;;;;5097782;28;24478;-57
2021/12/27 13:34:59;;;;;;;22.67;18.30;;;;;;;;;;5104057;28;24402;-57
2021/12/27 13:37:24;;;;;;;21.73;16.60;;;;;;;;;;5093162;28;24417;-57
2021/12/27 13:39:49;;;;;;;19.67;16.80;;;;;;;;;;5096528;28;24428;-57
2021/12/27 13:42:15;;;;;;;21.20;16.98;;;;;;;;;;5100270;28;25022;-57
2021/12/27 13:44:41;;;;;;;20.50;17.55;;;;;;;;;;5089180;28;24448;-57
2021/12/27 13:47:07;;;;;;;20.67;16.77;;;;;;;;;;5097229;28;25029;-56
2021/12/27 13:49:33;;;;;;;20.47;17.10;;;;;;;;;;5097850;28;24463;-56
2021/12/27 13:51:59;;;;;;;21.10;17.40;;;;;;;;;;5100508;28;24825;-56
2021/12/27 13:54:24;;;;;;;19.98;16.80;;;;;;;;;;5101475;28;24430;-56
2021/12/27 13:56:51;;;;;;;18.67;15.82;;;;;;;;;;5093860;28;24543;-56
2021/12/27 13:59:17;;;;;;;20.55;16.50;;;;;;;;;;5094554;28;24409;-57
2021/12/27 14:01:55;;;;;;;20.23;16.60;;;;;;;;;;5097388;28;24974;-56
2021/12/27 14:04:22;;;;;;;23.70;17.40;;;;;;;;;;5101834;28;24529;-56
2021/12/27 14:06:48;;;;;;;19.88;17.40;;;;;;;;;;5091976;28;24962;-56
2021/12/27 14:09:33;;;;;;;18.80;16.20;;;;;;;;;;5101513;28;24444;-56
2021/12/27 14:12:00;;;;;;;21.10;18.15;;;;;;;;;;5077834;28;24517;-56
2021/12/27 14:14:32;;;;;;;18.75;16.20;;;;;;;;;;5093689;28;24420;-56
2021/12/27 14:17:23;;;;;;;20.42;16.67;;;;;;;;;;5097353;28;24428;-56